Time;durP1;ratioP1;P1;durP2;ratioP2;P2;SDS_P1;SDS_P2;PMS_P1;PMS_P2;Temp;Humidity;BMP_temperature;BMP_pressure;BME280_temperature;BME280_humidity;BME280_pressure;Samples;Min_cycle;Max_cycle;Signal;HPM_P1;HPM_P2
2023/04/05 00:01:24;;;;;;;;;;;;;;;;;;5096978;28;19908;-65
2023/04/05 00:03:50;;;;;;;;;;;;;;;;;;5096487;28;20320;-65
2023/04/05 00:06:17;;;;;;;;;;;;;;;;;;5096996;28;19947;-65
2023/04/05 00:08:48;;;;;;;;;;;;;;;;;;5096452;28;19908;-65
2023/04/05 00:11:14;;;;;;;;;;;;;;;;;;5096800;28;19919;-66
2023/04/05 00:13:40;;;;;;;;;;;;;;;;;;5096694;28;19916;-66
2023/04/05 00:16:06;;;;;;;;;;;;;;;;;;5096504;28;19908;-66
2023/04/05 00:18:33;;;;;;;;;;;;;;;;;;5096913;28;19914;-64
2023/04/05 00:20:59;;;;;;;;;;;;;;;;;;5096579;28;19908;-66
2023/04/05 00:23:25;;;;;;;;;;;;;;;;;;5078015;28;19908;-65
2023/04/05 00:25:51;;;;;;;;;;;;;;;;;;5096042;28;20001;-66
2023/04/05 00:28:17;;;;;;;;;;;;;;;;;;5096413;28;20360;-64
2023/04/05 00:30:43;;;;;;;;;;;;;;;;;;5096068;28;19999;-65
2023/04/05 00:33:09;;;;;;;;;;;;;;;;;;5096318;28;19915;-65
2023/04/05 00:35:35;;;;;;;;;;;;;;;;;;5096703;28;19916;-65
2023/04/05 00:38:01;;;;;;;;;;;;;;;;;;5095925;28;19915;-65
2023/04/05 00:40:27;;;;;;;;;;;;;;;;;;5096324;28;19934;-65
2023/04/05 00:42:53;;;;;;;;;;;;;;;;;;5096172;28;20006;-65
2023/04/05 00:45:19;;;;;;;;;;;;;;;;;;5077653;28;19908;-65
2023/04/05 00:47:45;;;;;;;;;;;;;;;;;;5096145;28;19908;-64
2023/04/05 00:50:12;;;;;;;;;;;;;;;;;;5096064;28;20002;-65
2023/04/05 00:52:39;;;;;;;;;;;;;;;;;;5077475;28;20003;-65
2023/04/05 00:55:06;;;;;;;;;;;;;;;;;;5095669;28;19963;-65
2023/04/05 00:57:33;;;;;;;;;;;;;;;;;;5095899;28;19909;-64
2023/04/05 00:59:59;;;;;;;;;;;;;;;;;;5095763;28;20267;-65
2023/04/05 01:02:25;;;;;;;;;;;;;;;;;;5095769;28;19990;-64
2023/04/05 01:04:51;;;;;;;;;;;;;;;;;;5095703;28;19954;-65
2023/04/05 01:07:18;;;;;;;;;;;;;;;;;;5095288;28;19954;-64
2023/04/05 01:09:44;;;;;;;;;;;;;;;;;;5095806;28;19998;-65
2023/04/05 01:12:10;;;;;;;;;;;;;;;;;;5077026;28;20033;-65
2023/04/05 01:14:36;;;;;;;;;;;;;;;;;;5077284;28;19966;-65
2023/04/05 01:17:02;;;;;;;;;;;;;;;;;;5095493;28;19947;-65
2023/04/05 01:19:28;;;;;;;;;;;;;;;;;;5095100;28;19908;-65
2023/04/05 01:21:57;;;;;;;;;;;;;;;;;;5095361;28;19912;-65
2023/04/05 01:24:24;;;;;;;;;;;;;;;;;;5095343;28;19908;-65
2023/04/05 01:26:49;;;;;;;;;;;;;;;;;;5094921;28;19951;-64
2023/04/05 01:29:16;;;;;;;;;;;;;;;;;;5095276;28;19961;-65
2023/04/05 01:31:42;;;;;;;;;;;;;;;;;;5095158;28;19931;-65
2023/04/05 01:34:08;;;;;;;;;;;;;;;;;;5094684;28;20376;-64
2023/04/05 01:36:34;;;;;;;;;;;;;;;;;;5095145;28;19912;-65
2023/04/05 01:39:00;;;;;;;;;;;;;;;;;;5094332;28;20252;-64
2023/04/05 01:41:26;;;;;;;;;;;;;;;;;;5094695;28;20334;-65
2023/04/05 01:43:52;;;;;;;;;;;;;;;;;;5076789;28;19959;-65
2023/04/05 01:46:18;;;;;;;;;;;;;;;;;;5094888;28;19959;-66
2023/04/05 01:48:44;;;;;;;;;;;;;;;;;;5076301;28;19912;-65
2023/04/05 01:51:10;;;;;;;;;;;;;;;;;;5094796;28;20326;-65
2023/04/05 01:53:36;;;;;;;;;;;;;;;;;;5076236;28;19920;-65
2023/04/05 01:56:02;;;;;;;;;;;;;;;;;;5094302;28;20307;-64
2023/04/05 01:58:28;;;;;;;;;;;;;;;;;;5094970;28;20361;-65
2023/04/05 02:00:54;;;;;;;;;;;;;;;;;;5094606;28;20325;-65
2023/04/05 02:03:20;;;;;;;;;;;;;;;;;;5094154;28;19915;-65
2023/04/05 02:05:46;;;;;;;;;;;;;;;;;;5094555;28;19908;-65
2023/04/05 02:08:13;;;;;;;;;;;;;;;;;;5094324;28;19908;-65
2023/04/05 02:10:39;;;;;;;;;;;;;;;;;;5076294;28;19908;-65
2023/04/05 02:13:05;;;;;;;;;;;;;;;;;;5094441;28;19908;-65
2023/04/05 02:15:34;;;;;;;;;;;;;;;;;;5093854;28;19917;-65
2023/04/05 02:18:02;;;;;;;;;;;;;;;;;;5094397;28;19909;-65
2023/04/05 02:20:28;;;;;;;;;;;;;;;;;;5076161;28;19914;-65
2023/04/05 02:22:54;;;;;;;;;;;;;;;;;;5093921;28;19912;-65
2023/04/05 02:25:20;;;;;;;;;;;;;;;;;;5094295;28;20257;-65
2023/04/05 02:27:46;;;;;;;;;;;;;;;;;;5094329;28;19912;-66
2023/04/05 02:30:12;;;;;;;;;;;;;;;;;;5093852;28;19935;-65
2023/04/05 02:32:38;;;;;;;;;;;;;;;;;;5094089;28;20347;-65
2023/04/05 02:35:04;;;;;;;;;;;;;;;;;;5094074;28;19927;-65
2023/04/05 02:37:30;;;;;;;;;;;;;;;;;;5075592;28;19912;-65
2023/04/05 02:39:56;;;;;;;;;;;;;;;;;;5094221;28;19908;-65
2023/04/05 02:42:22;;;;;;;;;;;;;;;;;;5094015;28;19915;-66
2023/04/05 02:44:48;;;;;;;;;;;;;;;;;;5093591;28;20391;-65
2023/04/05 02:47:20;;;;;;;;;;;;;;;;;;5093932;28;20006;-65
2023/04/05 02:49:46;;;;;;;;;;;;;;;;;;5093737;28;19977;-65
2023/04/05 02:52:11;;;;;;;;;;;;;;;;;;5093557;28;20360;-65
2023/04/05 02:54:37;;;;;;;;;;;;;;;;;;5093546;28;19925;-65
2023/04/05 02:57:03;;;;;;;;;;;;;;;;;;5093886;28;20019;-66
2023/04/05 02:59:29;;;;;;;;;;;;;;;;;;5093436;28;19908;-66
2023/04/05 03:01:55;;;;;;;;;;;;;;;;;;5093819;28;19915;-65
2023/04/05 03:04:25;;;;;;;;;;;;;;;;;;5093755;28;19994;-65
2023/04/05 03:06:53;;;;;;;;;;;;;;;;;;5093605;28;19908;-65
2023/04/05 03:09:19;;;;;;;;;;;;;;;;;;5093742;28;20360;-65
2023/04/05 03:11:45;;;;;;;;;;;;;;;;;;5075214;28;20382;-66
2023/04/05 03:14:11;;;;;;;;;;;;;;;;;;5093680;28;19916;-66
2023/04/05 03:16:40;;;;;;;;;;;;;;;;;;5093833;28;19908;-64
2023/04/05 03:19:06;;;;;;;;;;;;;;;;;;5093305;28;20367;-64
2023/04/05 03:21:32;;;;;;;;;;;;;;;;;;5093635;28;19998;-64
2023/04/05 03:23:59;;;;;;;;;;;;;;;;;;5075760;28;19986;-64
2023/04/05 03:26:25;;;;;;;;;;;;;;;;;;5093152;28;19912;-65
2023/04/05 03:28:51;;;;;;;;;;;;;;;;;;5093537;28;19919;-64
2023/04/05 03:31:16;;;;;;;;;;;;;;;;;;5093479;28;19931;-64
2023/04/05 03:33:42;;;;;;;;;;;;;;;;;;5092981;28;20006;-64
2023/04/05 03:36:08;;;;;;;;;;;;;;;;;;5093463;28;19912;-64
2023/04/05 03:38:34;;;;;;;;;;;;;;;;;;5093409;28;19919;-64
2023/04/05 03:41:00;;;;;;;;;;;;;;;;;;5093185;28;19994;-66
2023/04/05 03:43:26;;;;;;;;;;;;;;;;;;5075806;28;20395;-64
2023/04/05 03:45:52;;;;;;;;;;;;;;;;;;5093911;28;20379;-66
2023/04/05 03:48:19;;;;;;;;;;;;;;;;;;5093226;28;20353;-66
2023/04/05 03:50:45;;;;;;;;;;;;;;;;;;5093382;28;19991;-65
2023/04/05 03:53:11;;;;;;;;;;;;;;;;;;5093173;28;19997;-64
2023/04/05 03:55:38;;;;;;;;;;;;;;;;;;5092940;28;19916;-64
2023/04/05 03:58:05;;;;;;;;;;;;;;;;;;5093310;28;19966;-65
2023/04/05 04:00:31;;;;;;;;;;;;;;;;;;5093306;28;19908;-64
2023/04/05 04:02:56;;;;;;;;;;;;;;;;;;5096299;28;19908;-65
2023/04/05 04:05:22;;;;;;;;;;;;;;;;;;5078698;28;19931;-65
2023/04/05 04:07:48;;;;;;;;;;;;;;;;;;5096408;28;19952;-65
2023/04/05 04:10:16;;;;;;;;;;;;;;;;;;5096761;28;19912;-65
2023/04/05 04:12:42;;;;;;;;;;;;;;;;;;5096810;28;19909;-65
2023/04/05 04:15:08;;;;;;;;;;;;;;;;;;5096039;28;19922;-65
2023/04/05 04:17:34;;;;;;;;;;;;;;;;;;5096838;28;19963;-65
2023/04/05 04:20:00;;;;;;;;;;;;;;;;;;5095418;28;19947;-64
2023/04/05 04:22:31;;;;;;;;;;;;;;;;;;5094968;28;19908;-65
2023/04/05 04:25:01;;;;;;;;;;;;;;;;;;5096799;28;19908;-66
2023/04/05 04:27:28;;;;;;;;;;;;;;;;;;5096431;28;19915;-65
2023/04/05 04:30:00;;;;;;;;;;;;;;;;;;5077859;28;19912;-66
2023/04/05 04:32:46;;;;;;;;;;;;;;;;;;5096458;28;20368;-66
2023/04/05 04:35:14;;;;;;;;;;;;;;;;;;5096106;28;19916;-65
2023/04/05 04:37:46;;;;;;;;;;;;;;;;;;5076062;28;19908;-65
2023/04/05 04:40:15;;;;;;;;;;;;;;;;;;5094519;28;20287;-64
2023/04/05 04:42:43;;;;;;;;;;;;;;;;;;5094375;28;19908;-65
2023/04/05 04:45:10;;;;;;;;;;;;;;;;;;5093962;28;19908;-65
2023/04/05 04:47:36;;;;;;;;;;;;;;;;;;5094434;28;19908;-65
2023/04/05 04:50:03;;;;;;;;;;;;;;;;;;5094125;28;19915;-65
2023/04/05 04:52:29;;;;;;;;;;;;;;;;;;5095775;28;19959;-65
2023/04/05 04:54:55;;;;;;;;;;;;;;;;;;5077615;28;19924;-65
2023/04/05 04:57:21;;;;;;;;;;;;;;;;;;5095500;28;20385;-65
2023/04/05 04:59:47;;;;;;;;;;;;;;;;;;5077776;28;19939;-67
2023/04/05 05:02:13;;;;;;;;;;;;;;;;;;5095876;28;19908;-65
2023/04/05 05:04:41;;;;;;;;;;;;;;;;;;5095366;28;19999;-65
2023/04/05 05:07:07;;;;;;;;;;;;;;;;;;5096143;28;19908;-65
2023/04/05 05:09:33;;;;;;;;;;;;;;;;;;5095665;28;19953;-65
2023/04/05 05:12:00;;;;;;;;;;;;;;;;;;5095056;28;19908;-65
2023/04/05 05:14:26;;;;;;;;;;;;;;;;;;5093387;28;20275;-64
2023/04/05 05:16:53;;;;;;;;;;;;;;;;;;5095247;28;19927;-64
2023/04/05 05:19:19;;;;;;;;;;;;;;;;;;5076375;28;19916;-64
2023/04/05 05:21:48;;;;;;;;;;;;;;;;;;5090698;28;19908;-65
2023/04/05 05:24:14;;;;;;;;;;;;;;;;;;5093789;28;19923;-65
2023/04/05 05:26:40;;;;;;;;;;;;;;;;;;5094569;28;19908;-66
2023/04/05 05:29:06;;;;;;;;;;;;;;;;;;5092578;28;19914;-65
2023/04/05 05:31:32;;;;;;;;;;;;;;;;;;5093806;28;20423;-64
2023/04/05 05:33:58;;;;;;;;;;;;;;;;;;5094347;28;19967;-64
2023/04/05 05:36:26;;;;;;;;;;;;;;;;;;5075035;28;19912;-64
2023/04/05 05:38:53;;;;;;;;;;;;;;;;;;5091321;28;20282;-63
2023/04/05 05:41:21;;;;;;;;;;;;;;;;;;5088565;28;19978;-64
2023/04/05 05:43:47;;;;;;;;;;;;;;;;;;5073940;28;20011;-63
2023/04/05 05:46:13;;;;;;;;;;;;;;;;;;5091699;28;20018;-64
2023/04/05 05:48:40;;;;;;;;;;;;;;;;;;5092160;28;19908;-63
2023/04/05 05:51:09;;;;;;;;;;;;;;;;;;5092490;28;19968;-64
2023/04/05 05:53:35;;;;;;;;;;;;;;;;;;5090660;28;20329;-63
2023/04/05 05:56:01;;;;;;;;;;;;;;;;;;5073391;28;19912;-63
2023/04/05 05:58:27;;;;;;;;;;;;;;;;;;5093114;28;19908;-64
2023/04/05 06:00:55;;;;;;;;;;;;;;;;;;5074431;28;19915;-64
2023/04/05 06:03:21;;;;;;;;;;;;;;;;;;5092691;28;19912;-64
2023/04/05 06:05:47;;;;;;;;;;;;;;;;;;5092859;28;19914;-64
2023/04/05 06:08:13;;;;;;;;;;;;;;;;;;5093191;28;19915;-63
2023/04/05 06:10:39;;;;;;;;;;;;;;;;;;5093179;28;19908;-64
2023/04/05 06:13:05;;;;;;;;;;;;;;;;;;5074664;28;20000;-64
2023/04/05 06:15:31;;;;;;;;;;;;;;;;;;5091146;28;20273;-63
2023/04/05 06:17:57;;;;;;;;;;;;;;;;;;5093068;28;19909;-63
2023/04/05 06:20:23;;;;;;;;;;;;;;;;;;5089855;28;19908;-63
2023/04/05 06:22:49;;;;;;;;;;;;;;;;;;5087268;28;19912;-64
2023/04/05 06:25:15;;;;;;;;;;;;;;;;;;5091040;28;20332;-63
2023/04/05 06:27:41;;;;;;;;;;;;;;;;;;5091427;28;19973;-63
2023/04/05 06:30:07;;;;;;;;;;;;;;;;;;5090691;28;20363;-63
2023/04/05 06:32:33;;;;;;;;;;;;;;;;;;5090774;28;19908;-63
2023/04/05 06:34:59;;;;;;;;;;;;;;;;;;5088711;28;20353;-63
2023/04/05 06:37:25;;;;;;;;;;;;;;;;;;5089870;28;19920;-63
2023/04/05 06:39:51;;;;;;;;;;;;;;;;;;5089425;28;19909;-62
2023/04/05 06:42:17;;;;;;;;;;;;;;;;;;5081592;28;19912;-62
2023/04/05 06:44:43;;;;;;;;;;;;;;;;;;5091964;28;19966;-63
2023/04/05 06:47:09;;;;;;;;;;;;;;;;;;5092539;28;20417;-64
2023/04/05 06:49:35;;;;;;;;;;;;;;;;;;5092502;28;19954;-62
2023/04/05 06:52:01;;;;;;;;;;;;;;;;;;5090718;28;19912;-62
2023/04/05 06:54:27;;;;;;;;;;;;;;;;;;5089208;28;19920;-62
2023/04/05 06:56:55;;;;;;;;;;;;;;;;;;5089299;28;19915;-62
2023/04/05 06:59:21;;;;;;;;;;;;;;;;;;5089916;28;19963;-64
2023/04/05 07:01:48;;;;;;;;;;;;;;;;;;5087064;28;19912;-64
2023/04/05 07:04:14;;;;;;;;;;;;;;;;;;5090196;28;19916;-64
2023/04/05 07:06:40;;;;;;;;;;;;;;;;;;5090540;28;19908;-64
2023/04/05 07:09:06;;;;;;;;;;;;;;;;;;5087544;28;19912;-65
2023/04/05 07:11:32;;;;;;;;;;;;;;;;;;5088151;28;20005;-64
2023/04/05 07:13:58;;;;;;;;;;;;;;;;;;5090286;28;20394;-65
2023/04/05 07:16:24;;;;;;;;;;;;;;;;;;5088102;28;20402;-65
2023/04/05 07:18:50;;;;;;;;;;;;;;;;;;5088685;28;19947;-65
2023/04/05 07:21:16;;;;;;;;;;;;;;;;;;5084937;28;19916;-65
2023/04/05 07:23:42;;;;;;;;;;;;;;;;;;5084211;28;19915;-65
2023/04/05 07:26:08;;;;;;;;;;;;;;;;;;5086100;28;19916;-64
2023/04/05 07:28:34;;;;;;;;;;;;;;;;;;5086347;28;20438;-65
2023/04/05 07:31:00;;;;;;;;;;;;;;;;;;5087673;28;19912;-64
2023/04/05 07:33:26;;;;;;;;;;;;;;;;;;5064146;28;19943;-64
2023/04/05 07:35:53;;;;;;;;;;;;;;;;;;5085364;28;19912;-64
2023/04/05 07:38:19;;;;;;;;;;;;;;;;;;5092694;28;20003;-64
2023/04/05 07:40:45;;;;;;;;;;;;;;;;;;5073510;28;19916;-65
2023/04/05 07:43:11;;;;;;;;;;;;;;;;;;5091359;28;19908;-65
2023/04/05 07:45:37;;;;;;;;;;;;;;;;;;5090788;28;20003;-65
2023/04/05 07:48:03;;;;;;;;;;;;;;;;;;5094231;28;19908;-65
2023/04/05 07:50:29;;;;;;;;;;;;;;;;;;5095091;28;19916;-64
2023/04/05 07:52:55;;;;;;;;;;;;;;;;;;5093297;28;19908;-65
2023/04/05 07:55:21;;;;;;;;;;;;;;;;;;5092805;28;19927;-65
2023/04/05 07:57:46;;;;;;;;;;;;;;;;;;5088441;28;19916;-65
2023/04/05 08:00:12;;;;;;;;;;;;;;;;;;5093168;28;19916;-66
2023/04/05 08:02:38;;;;;;;;;;;;;;;;;;5093870;28;20305;-65
2023/04/05 08:05:05;;;;;;;;;;;;;;;;;;5088362;28;20496;-65
2023/04/05 08:07:31;;;;;;;;;;;;;;;;;;5077776;28;19917;-65
2023/04/05 08:09:58;;;;;;;;;;;;;;;;;;5071654;28;19924;-66
2023/04/05 08:12:24;;;;;;;;;;;;;;;;;;5075391;28;20734;-65
2023/04/05 08:14:50;;;;;;;;;;;;;;;;;;5076387;28;20011;-68
2023/04/05 08:17:16;;;;;;;;;;;;;;;;;;5086188;28;19955;-64
2023/04/05 08:19:42;;;;;;;;;;;;;;;;;;5093890;28;19908;-66
2023/04/05 08:22:08;;;;;;;;;;;;;;;;;;5075131;28;19912;-66
2023/04/05 08:24:34;;;;;;;;;;;;;;;;;;5087285;28;19996;-66
2023/04/05 08:27:00;;;;;;;;;;;;;;;;;;5090642;28;20489;-66
2023/04/05 08:29:26;;;;;;;;;;;;;;;;;;5089791;28;19931;-65
2023/04/05 08:31:52;;;;;;;;;;;;;;;;;;5072809;28;19920;-65
2023/04/05 08:34:18;;;;;;;;;;;;;;;;;;5078153;28;19936;-64
2023/04/05 08:36:44;;;;;;;;;;;;;;;;;;5072567;28;19916;-65
2023/04/05 08:39:10;;;;;;;;;;;;;;;;;;5091563;28;19908;-65
2023/04/05 08:41:36;;;;;;;;;;;;;;;;;;5074521;28;19943;-65
2023/04/05 08:44:02;;;;;;;;;;;;;;;;;;5093175;28;19947;-65
2023/04/05 08:46:28;;;;;;;;;;;;;;;;;;5081238;28;19965;-65
2023/04/05 08:48:55;;;;;;;;;;;;;;;;;;5061722;28;19922;-65
2023/04/05 08:51:21;;;;;;;;;;;;;;;;;;5087382;28;19942;-65
2023/04/05 08:53:47;;;;;;;;;;;;;;;;;;5089284;28;19924;-65
2023/04/05 08:56:13;;;;;;;;;;;;;;;;;;5098922;28;19919;-64
2023/04/05 08:58:39;;;;;;;;;;;;;;;;;;5096188;28;19951;-65
2023/04/05 09:01:05;;;;;;;;;;;;;;;;;;5092156;28;19912;-64
2023/04/05 09:03:31;;;;;;;;;;;;;;;;;;5094418;28;19920;-64
2023/04/05 09:05:57;;;;;;;;;;;;;;;;;;5097619;28;19981;-65
2023/04/05 09:08:23;;;;;;;;;;;;;;;;;;5088166;28;19912;-64
2023/04/05 09:10:49;;;;;;;;;;;;;;;;;;5083924;28;19912;-65
2023/04/05 09:13:15;;;;;;;;;;;;;;;;;;5075233;28;20444;-65
2023/04/05 09:15:41;;;;;;;;;;;;;;;;;;5073038;28;20011;-64
2023/04/05 09:18:07;;;;;;;;;;;;;;;;;;5074993;28;20615;-65
2023/04/05 09:20:33;;;;;;;;;;;;;;;;;;5097348;28;19920;-65
2023/04/05 09:22:59;;;;;;;;;;;;;;;;;;5099188;28;19916;-64
2023/04/05 09:25:25;;;;;;;;;;;;;;;;;;5074875;28;19955;-64
2023/04/05 09:27:51;;;;;;;;;;;;;;;;;;5097104;28;19923;-67
2023/04/05 09:30:17;;;;;;;;;;;;;;;;;;5068270;28;19920;-66
2023/04/05 09:32:43;;;;;;;;;;;;;;;;;;5083052;28;19935;-66
2023/04/05 09:35:09;;;;;;;;;;;;;;;;;;5086590;28;20000;-68
2023/04/05 09:37:35;;;;;;;;;;;;;;;;;;5072768;28;19991;-70
2023/04/05 09:40:02;;;;;;;;;;;;;;;;;;5084196;28;20006;-69
2023/04/05 09:42:28;;;;;;;;;;;;;;;;;;5084623;28;20075;-68
2023/04/05 09:44:54;;;;;;;;;;;;;;;;;;5070582;28;20030;-64
2023/04/05 09:47:20;;;;;;;;;;;;;;;;;;5069430;28;19923;-65
2023/04/05 09:49:46;;;;;;;;;;;;;;;;;;5065651;28;19919;-64
2023/04/05 09:52:12;;;;;;;;;;;;;;;;;;5081540;28;19927;-65
2023/04/05 09:54:38;;;;;;;;;;;;;;;;;;5085235;28;19927;-64
2023/04/05 09:57:04;;;;;;;;;;;;;;;;;;5088308;28;19912;-63
2023/04/05 09:59:32;;;;;;;;;;;;;;;;;;5090542;28;19915;-65
2023/04/05 10:01:58;;;;;;;;;;;;;;;;;;5076830;28;20411;-66
2023/04/05 10:04:24;;;;;;;;;;;;;;;;;;5084321;28;19999;-66
2023/04/05 10:06:50;;;;;;;;;;;;;;;;;;5089284;28;19919;-68
2023/04/05 10:09:18;;;;;;;;;;;;;;;;;;5080938;28;19920;-65
2023/04/05 10:11:44;;;;;;;;;;;;;;;;;;5071819;28;20308;-65
2023/04/05 10:14:10;;;;;;;;;;;;;;;;;;5065667;28;19916;-64
2023/04/05 10:16:36;;;;;;;;;;;;;;;;;;5071095;28;19919;-65
2023/04/05 10:19:04;;;;;;;;;;;;;;;;;;5088784;28;19908;-65
2023/04/05 10:21:30;;;;;;;;;;;;;;;;;;5071264;28;20001;-64
2023/04/05 10:23:56;;;;;;;;;;;;;;;;;;5069768;28;19947;-66
2023/04/05 10:26:22;;;;;;;;;;;;;;;;;;5071429;28;19923;-64
2023/04/05 10:28:48;;;;;;;;;;;;;;;;;;5066520;28;19908;-66
2023/04/05 10:31:14;;;;;;;;;;;;;;;;;;5072128;28;20601;-64
2023/04/05 10:33:40;;;;;;;;;;;;;;;;;;5070985;28;19969;-64
2023/04/05 10:36:07;;;;;;;;;;;;;;;;;;5068952;28;19913;-64
2023/04/05 10:38:33;;;;;;;;;;;;;;;;;;5050347;28;20276;-64
2023/04/05 10:40:59;;;;;;;;;;;;;;;;;;5068195;28;19909;-65
2023/04/05 10:43:25;;;;;;;;;;;;;;;;;;5084805;28;19908;-64
2023/04/05 10:45:51;;;;;;;;;;;;;;;;;;5089569;28;19908;-65
2023/04/05 10:48:24;;;;;;;;;;;;;;;;;;5086797;28;19952;-65
2023/04/05 10:50:50;;;;;;;;;;;;;;;;;;5071458;28;19916;-65
2023/04/05 10:53:16;;;;;;;;;;;;;;;;;;5077752;28;19943;-65
2023/04/05 10:55:42;;;;;;;;;;;;;;;;;;5066423;28;19983;-65
2023/04/05 10:58:08;;;;;;;;;;;;;;;;;;5091851;28;20018;-63
2023/04/05 11:00:34;;;;;;;;;;;;;;;;;;5092721;28;19916;-63
2023/04/05 11:03:00;;;;;;;;;;;;;;;;;;5092609;28;19908;-63
2023/04/05 11:05:25;;;;;;;;;;;;;;;;;;5083983;28;19912;-63
2023/04/05 11:07:55;;;;;;;;;;;;;;;;;;5072495;28;19939;-63
2023/04/05 11:10:21;;;;;;;;;;;;;;;;;;5085394;28;20383;-64
2023/04/05 11:12:47;;;;;;;;;;;;;;;;;;5076882;28;19990;-64
2023/04/05 11:15:21;;;;;;;;;;;;;;;;;;5072991;28;19990;-63
2023/04/05 11:17:49;;;;;;;;;;;;;;;;;;5095431;28;19912;-64
2023/04/05 11:20:15;;;;;;;;;;;;;;;;;;5075154;28;19908;-65
2023/04/05 11:22:41;;;;;;;;;;;;;;;;;;5074772;28;19915;-64
2023/04/05 11:25:08;;;;;;;;;;;;;;;;;;5072711;28;19912;-63
2023/04/05 11:27:36;;;;;;;;;;;;;;;;;;5073173;28;20495;-64
2023/04/05 11:30:02;;;;;;;;;;;;;;;;;;5055401;28;19912;-64
2023/04/05 11:32:28;;;;;;;;;;;;;;;;;;5076817;28;19912;-64
2023/04/05 11:34:54;;;;;;;;;;;;;;;;;;5081452;28;20022;-64
2023/04/05 11:37:20;;;;;;;;;;;;;;;;;;5075767;28;19908;-64
2023/04/05 11:39:45;;;;;;;;;;;;;;;;;;5084855;28;19966;-64
2023/04/05 11:42:12;;;;;;;;;;;;;;;;;;5083059;28;19927;-64
2023/04/05 11:44:38;;;;;;;;;;;;;;;;;;5074887;28;19934;-66
2023/04/05 11:47:04;;;;;;;;;;;;;;;;;;5075400;28;19912;-64
2023/04/05 11:49:30;;;;;;;;;;;;;;;;;;5058205;28;19908;-64
2023/04/05 11:51:56;;;;;;;;;;;;;;;;;;5076233;28;19908;-64
2023/04/05 11:54:22;;;;;;;;;;;;;;;;;;5075039;28;20030;-64
2023/04/05 11:56:47;;;;;;;;;;;;;;;;;;5056376;28;19908;-64
2023/04/05 11:59:13;;;;;;;;;;;;;;;;;;5073719;28;19943;-64
2023/04/05 12:01:39;;;;;;;;;;;;;;;;;;5058888;28;19913;-64
2023/04/05 12:04:05;;;;;;;;;;;;;;;;;;5087696;28;19959;-64
2023/04/05 12:06:31;;;;;;;;;;;;;;;;;;5095774;28;19908;-64
2023/04/05 12:08:57;;;;;;;;;;;;;;;;;;5078709;28;20017;-64
2023/04/05 12:11:23;;;;;;;;;;;;;;;;;;5075833;28;19974;-64
2023/04/05 12:13:49;;;;;;;;;;;;;;;;;;5075240;28;19931;-64
2023/04/05 12:16:15;;;;;;;;;;;;;;;;;;5088462;28;19916;-64
2023/04/05 12:18:41;;;;;;;;;;;;;;;;;;5094827;28;19912;-66
2023/04/05 12:21:07;;;;;;;;;;;;;;;;;;5089596;28;20375;-64
2023/04/05 12:23:33;;;;;;;;;;;;;;;;;;5067207;28;19935;-64
2023/04/05 12:25:59;;;;;;;;;;;;;;;;;;5093452;28;19908;-65
2023/04/05 12:28:25;;;;;;;;;;;;;;;;;;5091883;28;20380;-64
2023/04/05 12:30:51;;;;;;;;;;;;;;;;;;5083734;28;20334;-64
2023/04/05 12:33:17;;;;;;;;;;;;;;;;;;5063439;28;19916;-65
2023/04/05 12:35:43;;;;;;;;;;;;;;;;;;5076779;28;19959;-65
2023/04/05 12:38:09;;;;;;;;;;;;;;;;;;5089690;28;19920;-65
2023/04/05 12:40:35;;;;;;;;;;;;;;;;;;5077007;28;20364;-65
2023/04/05 12:43:02;;;;;;;;;;;;;;;;;;5080806;28;19912;-65
2023/04/05 12:45:28;;;;;;;;;;;;;;;;;;5089975;28;19970;-64
2023/04/05 12:47:54;;;;;;;;;;;;;;;;;;5089814;28;19915;-65
2023/04/05 12:50:20;;;;;;;;;;;;;;;;;;5091358;28;19912;-65
2023/04/05 12:52:49;;;;;;;;;;;;;;;;;;5081360;28;19912;-65
2023/04/05 12:55:15;;;;;;;;;;;;;;;;;;5072463;28;20016;-65
2023/04/05 12:57:41;;;;;;;;;;;;;;;;;;5073732;28;19966;-65
2023/04/05 13:00:07;;;;;;;;;;;;;;;;;;5072650;28;20002;-65
2023/04/05 13:02:33;;;;;;;;;;;;;;;;;;5072157;28;19995;-65
2023/04/05 13:04:59;;;;;;;;;;;;;;;;;;5055414;28;19962;-66
2023/04/05 13:07:25;;;;;;;;;;;;;;;;;;5072790;28;19913;-67
2023/04/05 13:09:51;;;;;;;;;;;;;;;;;;5054485;28;20368;-67
2023/04/05 13:12:17;;;;;;;;;;;;;;;;;;5055251;28;19951;-66
2023/04/05 13:14:43;;;;;;;;;;;;;;;;;;5073204;28;19962;-66
2023/04/05 13:17:09;;;;;;;;;;;;;;;;;;5072837;28;20279;-66
2023/04/05 13:19:35;;;;;;;;;;;;;;;;;;5073195;28;20301;-66
2023/04/05 13:22:01;;;;;;;;;;;;;;;;;;5073798;28;19909;-66
2023/04/05 13:24:27;;;;;;;;;;;;;;;;;;5074727;28;19955;-66
2023/04/05 13:26:53;;;;;;;;;;;;;;;;;;5087162;28;20360;-66
2023/04/05 13:29:19;;;;;;;;;;;;;;;;;;5095161;28;19908;-65
2023/04/05 13:31:45;;;;;;;;;;;;;;;;;;5090489;28;19919;-66
2023/04/05 13:34:11;;;;;;;;;;;;;;;;;;5085954;28;20299;-66
2023/04/05 13:36:37;;;;;;;;;;;;;;;;;;5094120;28;20287;-66
2023/04/05 13:39:03;;;;;;;;;;;;;;;;;;5090854;28;20801;-66
2023/04/05 13:41:29;;;;;;;;;;;;;;;;;;5094166;28;19919;-66
2023/04/05 13:43:55;;;;;;;;;;;;;;;;;;5089090;28;19912;-66
2023/04/05 13:46:21;;;;;;;;;;;;;;;;;;5091670;28;19915;-66
2023/04/05 13:48:47;;;;;;;;;;;;;;;;;;5094647;28;19934;-65
2023/04/05 13:51:13;;;;;;;;;;;;;;;;;;5094845;28;19908;-65
2023/04/05 13:53:39;;;;;;;;;;;;;;;;;;5094058;28;19923;-65
2023/04/05 13:56:05;;;;;;;;;;;;;;;;;;5094574;28;19943;-65
2023/04/05 13:58:31;;;;;;;;;;;;;;;;;;5094532;28;19908;-65
2023/04/05 14:00:57;;;;;;;;;;;;;;;;;;5094587;28;20402;-66
2023/04/05 14:03:23;;;;;;;;;;;;;;;;;;5076352;28;20359;-65
2023/04/05 14:05:49;;;;;;;;;;;;;;;;;;5094124;28;20399;-66
2023/04/05 14:08:15;;;;;;;;;;;;;;;;;;5094777;28;19908;-65
2023/04/05 14:10:41;;;;;;;;;;;;;;;;;;5094510;28;20325;-65
2023/04/05 14:13:07;;;;;;;;;;;;;;;;;;5094012;28;19942;-66
2023/04/05 14:15:34;;;;;;;;;;;;;;;;;;5094265;28;19916;-65
2023/04/05 14:18:00;;;;;;;;;;;;;;;;;;5094182;28;19912;-66
2023/04/05 14:20:26;;;;;;;;;;;;;;;;;;5093908;28;20293;-66
2023/04/05 14:22:52;;;;;;;;;;;;;;;;;;5094158;28;19908;-64
2023/04/05 14:25:18;;;;;;;;;;;;;;;;;;5094274;28;19908;-67
2023/04/05 14:27:44;;;;;;;;;;;;;;;;;;5094056;28;20364;-67
2023/04/05 14:30:11;;;;;;;;;;;;;;;;;;5076242;28;19915;-67
2023/04/05 14:32:44;;;;;;;;;;;;;;;;;;5093948;28;19959;-67
2023/04/05 14:35:10;;;;;;;;;;;;;;;;;;5093935;28;19916;-67
2023/04/05 14:37:38;;;;;;;;;;;;;;;;;;5094227;28;19908;-67
2023/04/05 14:40:04;;;;;;;;;;;;;;;;;;5075673;28;19916;-67
2023/04/05 14:42:30;;;;;;;;;;;;;;;;;;5093617;28;19961;-66
2023/04/05 14:44:56;;;;;;;;;;;;;;;;;;5093731;28;20011;-67
2023/04/05 14:47:22;;;;;;;;;;;;;;;;;;5093119;28;19909;-67
2023/04/05 14:49:48;;;;;;;;;;;;;;;;;;5092633;28;20036;-67
2023/04/05 14:52:14;;;;;;;;;;;;;;;;;;5093603;28;19955;-67
2023/04/05 14:54:40;;;;;;;;;;;;;;;;;;5093283;28;19924;-67
2023/04/05 14:57:08;;;;;;;;;;;;;;;;;;5092509;28;20215;-67
2023/04/05 14:59:34;;;;;;;;;;;;;;;;;;5093995;28;19916;-67
2023/04/05 15:02:00;;;;;;;;;;;;;;;;;;5075275;28;19909;-67
2023/04/05 15:04:26;;;;;;;;;;;;;;;;;;5093870;28;19992;-67
2023/04/05 15:06:52;;;;;;;;;;;;;;;;;;5094019;28;19911;-66
2023/04/05 15:09:18;;;;;;;;;;;;;;;;;;5093341;28;20356;-67
2023/04/05 15:11:44;;;;;;;;;;;;;;;;;;5093679;28;19944;-67
2023/04/05 15:14:10;;;;;;;;;;;;;;;;;;5093831;28;19912;-67
2023/04/05 15:16:36;;;;;;;;;;;;;;;;;;5075207;28;20364;-66
2023/04/05 15:19:04;;;;;;;;;;;;;;;;;;5093778;28;20279;-66
2023/04/05 15:21:30;;;;;;;;;;;;;;;;;;5093764;28;19931;-67
2023/04/05 15:23:56;;;;;;;;;;;;;;;;;;5075304;28;19908;-67
2023/04/05 15:26:22;;;;;;;;;;;;;;;;;;5093785;28;19909;-67
2023/04/05 15:28:48;;;;;;;;;;;;;;;;;;5093637;28;19908;-66
2023/04/05 15:31:14;;;;;;;;;;;;;;;;;;5093205;28;19999;-67
2023/04/05 15:33:40;;;;;;;;;;;;;;;;;;5093383;28;19953;-67
2023/04/05 15:36:06;;;;;;;;;;;;;;;;;;5093559;28;20091;-67
2023/04/05 15:38:32;;;;;;;;;;;;;;;;;;5074881;28;19915;-67
2023/04/05 15:40:58;;;;;;;;;;;;;;;;;;5093657;28;20000;-67
2023/04/05 15:43:24;;;;;;;;;;;;;;;;;;5093331;28;20344;-67
2023/04/05 15:45:50;;;;;;;;;;;;;;;;;;5074840;28;19915;-67
2023/04/05 15:48:16;;;;;;;;;;;;;;;;;;5093396;28;20306;-66
2023/04/05 15:50:42;;;;;;;;;;;;;;;;;;5093376;28;20011;-66
2023/04/05 15:53:08;;;;;;;;;;;;;;;;;;5074674;28;19908;-66
2023/04/05 15:55:34;;;;;;;;;;;;;;;;;;5093268;28;19920;-66
2023/04/05 15:58:00;;;;;;;;;;;;;;;;;;5095331;28;19912;-67
2023/04/05 16:00:27;;;;;;;;;;;;;;;;;;5096539;28;20443;-67
2023/04/05 16:02:54;;;;;;;;;;;;;;;;;;5097051;28;19909;-67
2023/04/05 16:05:20;;;;;;;;;;;;;;;;;;5078328;28;19909;-67
2023/04/05 16:07:46;;;;;;;;;;;;;;;;;;5096711;28;19931;-68
2023/04/05 16:10:12;;;;;;;;;;;;;;;;;;5096702;28;19908;-67
2023/04/05 16:12:38;;;;;;;;;;;;;;;;;;5096326;28;19916;-68
2023/04/05 16:15:04;;;;;;;;;;;;;;;;;;5096602;28;19920;-65
2023/04/05 16:17:30;;;;;;;;;;;;;;;;;;5096711;28;19915;-67
2023/04/05 16:19:56;;;;;;;;;;;;;;;;;;5078004;28;19909;-67
2023/04/05 16:22:23;;;;;;;;;;;;;;;;;;5096438;28;19908;-67
2023/04/05 16:24:49;;;;;;;;;;;;;;;;;;5078206;28;19916;-67
2023/04/05 16:27:15;;;;;;;;;;;;;;;;;;5078079;28;19912;-67
2023/04/05 16:29:41;;;;;;;;;;;;;;;;;;5096433;28;19931;-67
2023/04/05 16:32:07;;;;;;;;;;;;;;;;;;5096932;28;20340;-67
2023/04/05 16:34:33;;;;;;;;;;;;;;;;;;5077727;28;19998;-67
2023/04/05 16:36:59;;;;;;;;;;;;;;;;;;5077934;28;19995;-67
2023/04/05 16:39:25;;;;;;;;;;;;;;;;;;5096145;28;19947;-66